createdAt,value
2022-10-05T00:02:41.283Z,48
2022-10-05T00:07:59.745Z,47.8
2022-10-05T00:13:18.511Z,47.8
2022-10-05T00:18:36.736Z,47.9
2022-10-05T00:23:55.211Z,47.8
2022-10-05T00:29:13.706Z,47.6
2022-10-05T00:34:32.211Z,48.6
2022-10-05T00:39:50.684Z,48.7
2022-10-05T00:45:08.906Z,47.9
2022-10-05T00:50:27.147Z,47.9
2022-10-05T00:55:45.326Z,48.7
2022-10-05T01:01:03.716Z,48.1
2022-10-05T01:06:22.565Z,47.7
2022-10-05T01:11:41.108Z,47.9
2022-10-05T01:16:59.362Z,48.8
2022-10-05T01:22:17.683Z,48.9
2022-10-05T01:27:36.144Z,48.9
2022-10-05T01:32:54.653Z,48.5
2022-10-05T01:38:13.159Z,48.3
2022-10-05T01:43:31.615Z,48
2022-10-05T01:48:50.395Z,48.6
2022-10-05T01:54:08.336Z,48.3
2022-10-05T01:59:27.083Z,48.2
2022-10-05T02:05:03.596Z,48.6
2022-10-05T02:10:21.554Z,49.3
2022-10-05T02:15:40.095Z,49
2022-10-05T02:20:58.577Z,48
2022-10-05T02:26:16.545Z,48.2
2022-10-05T02:31:35.018Z,48.5
2022-10-05T02:36:53.276Z,49.3
2022-10-05T02:42:11.877Z,48.3
2022-10-05T02:47:30.337Z,48.7
2022-10-05T02:52:48.542Z,49.5
2022-10-05T02:58:07.060Z,49.1
2022-10-05T03:03:25.522Z,49
2022-10-05T03:08:28.403Z,50
2022-10-05T03:13:46.635Z,49.5
2022-10-05T03:19:05.101Z,49.4
2022-10-05T03:24:23.592Z,49.1
2022-10-05T03:29:42.379Z,50
2022-10-05T03:35:00.569Z,49.2
2022-10-05T03:40:19.346Z,49.8
2022-10-05T03:45:38.137Z,50
2022-10-05T03:50:56.605Z,49.5
2022-10-05T03:56:15.383Z,49.6
2022-10-05T04:01:33.908Z,49.1
2022-10-05T04:06:51.817Z,49.2
2022-10-05T04:12:10.305Z,49.8
2022-10-05T04:17:28.831Z,49.7
2022-10-05T04:22:47.300Z,49.1
2022-10-05T04:28:06.156Z,49
2022-10-05T04:33:24.379Z,42.3
2022-10-05T04:38:42.836Z,41
2022-10-05T04:44:01.057Z,39.9
2022-10-05T04:49:19.570Z,41.1
2022-10-05T04:54:38.311Z,41.2
2022-10-05T04:59:56.515Z,41.5
2022-10-05T05:05:14.603Z,43.6
2022-10-05T05:10:17.501Z,45
2022-10-05T05:15:35.977Z,45
2022-10-05T05:20:54.670Z,45.6
2022-10-05T05:26:12.841Z,45.3
2022-10-05T05:31:31.628Z,46.4
2022-10-05T05:36:50.282Z,45.4
2022-10-05T05:42:09.005Z,45.1
2022-10-05T05:47:27.621Z,45.5
2022-10-05T05:52:46.301Z,45.3
2022-10-05T05:58:05.018Z,45.4
2022-10-05T06:03:24.159Z,45.4
2022-10-05T06:08:42.503Z,46
2022-10-05T06:14:00.408Z,46.4
2022-10-05T06:19:18.616Z,45.1
2022-10-05T06:24:37.117Z,45.7
2022-10-05T06:29:55.862Z,46.4
2022-10-05T06:35:14.356Z,45.8
2022-10-05T06:40:32.870Z,46.6
2022-10-05T06:45:51.470Z,46.1
2022-10-05T06:51:10.040Z,46
2022-10-05T06:56:28.557Z,46.3
2022-10-05T07:01:47.838Z,45.9
2022-10-05T07:07:06.579Z,46
2022-10-05T07:12:25.226Z,46.2
2022-10-05T07:17:43.688Z,46.5
2022-10-05T07:23:02.174Z,46.6
2022-10-05T07:28:20.938Z,45.9
2022-10-05T07:33:39.136Z,45.8
2022-10-05T07:38:57.897Z,46.3
2022-10-05T07:44:16.428Z,46.4
2022-10-05T07:49:34.893Z,45.8
2022-10-05T07:54:53.379Z,46.6
2022-10-05T08:00:12.198Z,46.6
2022-10-05T08:05:30.647Z,46.6
2022-10-05T08:10:48.566Z,46.3
2022-10-05T08:16:07.448Z,46.6
2022-10-05T08:21:25.740Z,45.6
2022-10-05T08:26:43.955Z,45.8
2022-10-05T08:32:02.485Z,46.5
2022-10-05T08:37:21.213Z,45.6
2022-10-05T08:42:39.423Z,46
2022-10-05T08:47:58.013Z,45.9
2022-10-05T08:53:16.457Z,45.7
2022-10-05T08:58:34.671Z,46.1
2022-10-05T09:03:37.282Z,45.9
2022-10-05T09:08:55.458Z,46
2022-10-05T09:14:13.930Z,46.5
2022-10-05T09:19:32.514Z,46.3
2022-10-05T09:24:50.716Z,46.4
2022-10-05T09:30:09.473Z,46
2022-10-05T09:35:27.714Z,46.5
2022-10-05T09:40:46.445Z,45.7
2022-10-05T09:46:05.156Z,46.4
2022-10-05T09:51:23.739Z,46.5
2022-10-05T09:56:41.932Z,45.7
2022-10-05T10:02:00.435Z,46.6
2022-10-05T10:07:18.699Z,45.9
2022-10-05T10:12:36.588Z,46
2022-10-05T10:17:55.350Z,46.4
2022-10-05T10:23:13.773Z,45.9
2022-10-05T10:28:32.363Z,45.7
2022-10-05T10:33:50.879Z,46.4
2022-10-05T10:39:09.677Z,45.6
2022-10-05T10:44:28.115Z,45.8
2022-10-05T10:49:46.596Z,45.5
2022-10-05T10:55:04.590Z,46.2
2022-10-05T11:00:23.033Z,46.2
2022-10-05T11:05:49.006Z,45.9
2022-10-05T11:11:07.115Z,46.3
2022-10-05T11:16:25.587Z,45.5
2022-10-05T11:21:43.787Z,46.1
2022-10-05T11:27:02.182Z,45.4
2022-10-05T11:32:20.643Z,45.5
2022-10-05T11:37:39.404Z,46.2
2022-10-05T11:42:57.930Z,46
2022-10-05T11:48:16.381Z,46.2
2022-10-05T11:53:34.634Z,46.2
2022-10-05T11:58:53.128Z,45.4
2022-10-05T12:04:11.630Z,46.1
2022-10-05T12:09:29.540Z,46.1
2022-10-05T12:14:47.770Z,46.2
2022-10-05T12:20:06.225Z,46.9
2022-10-05T12:25:24.994Z,46
2022-10-05T12:30:43.790Z,45.9
2022-10-05T12:36:02.249Z,45.8
2022-10-05T12:41:20.730Z,46.5
2022-10-05T12:46:38.990Z,46.3
2022-10-05T12:51:57.150Z,46.7
2022-10-05T12:57:15.920Z,46.6
2022-10-05T13:02:33.866Z,46.4
2022-10-05T13:07:52.597Z,46.6
2022-10-05T13:13:11.084Z,47.5
2022-10-05T13:18:29.585Z,47.2
2022-10-05T13:23:47.766Z,46.7
2022-10-05T13:29:06.238Z,46.6
2022-10-05T13:34:24.659Z,46.9
2022-10-05T13:39:43.113Z,46.8
2022-10-05T13:45:01.308Z,46.1
2022-10-05T13:50:19.715Z,46.9
2022-10-05T13:55:37.875Z,47
2022-10-05T14:00:56.652Z,46.2
2022-10-05T14:06:14.922Z,46.9
2022-10-05T14:11:33.665Z,46.9
2022-10-05T14:16:52.067Z,47
2022-10-05T14:22:10.694Z,46.6
2022-10-05T14:27:29.432Z,46.9
2022-10-05T14:32:47.912Z,46.4
2022-10-05T14:38:07.240Z,46.2
2022-10-05T14:43:25.412Z,46.5
2022-10-05T14:48:43.903Z,47.2
2022-10-05T14:54:01.864Z,46.8
2022-10-05T14:59:20.318Z,47.1
2022-10-05T15:04:38.518Z,47.3
2022-10-05T15:09:56.532Z,46.1
2022-10-05T15:15:15.020Z,46
2022-10-05T15:20:33.513Z,47
2022-10-05T15:25:52.422Z,46.7
2022-10-05T15:31:10.475Z,46.4
2022-10-05T15:36:28.946Z,46.9
2022-10-05T15:41:46.886Z,46.3
2022-10-05T15:47:05.344Z,46.8
2022-10-05T15:52:23.575Z,46.2
2022-10-05T15:57:42.086Z,46.4
2022-10-05T16:03:00.542Z,46.1
2022-10-05T16:08:18.754Z,46.2
2022-10-05T16:13:36.990Z,46.7
2022-10-05T16:18:55.460Z,47
2022-10-05T16:24:14.227Z,46.5
2022-10-05T16:29:32.492Z,46.6
2022-10-05T16:34:50.685Z,48.8
2022-10-05T16:40:09.176Z,47.8
2022-10-05T16:45:27.681Z,47.1
2022-10-05T16:50:45.867Z,47.8
2022-10-05T16:56:04.359Z,47.7
2022-10-05T17:01:23.126Z,47.6
2022-10-05T17:06:41.630Z,47.3
2022-10-05T17:11:59.847Z,48.3
2022-10-05T17:17:18.353Z,48
2022-10-05T17:22:36.823Z,47.1
2022-10-05T17:27:55.359Z,47.5
2022-10-05T17:33:14.238Z,48.2
2022-10-05T17:38:32.700Z,47.2
2022-10-05T17:43:51.471Z,47.9
2022-10-05T17:49:09.977Z,47.3
2022-10-05T17:54:27.888Z,47.3
2022-10-05T17:59:46.662Z,47.2
2022-10-05T18:05:05.423Z,48.4
2022-10-05T18:10:23.844Z,46.7
2022-10-05T18:15:42.169Z,47.4
2022-10-05T18:21:00.659Z,47.7
2022-10-05T18:26:19.090Z,48.1
2022-10-05T18:31:37.749Z,47.7
2022-10-05T18:36:56.512Z,47.9
2022-10-05T18:42:14.707Z,47.6
2022-10-05T18:47:33.462Z,48.3
2022-10-05T18:52:51.962Z,47.8
2022-10-05T18:58:10.435Z,47.8
2022-10-05T19:03:28.641Z,48.6
2022-10-05T19:08:47.289Z,48
2022-10-05T19:14:05.762Z,48.2
2022-10-05T19:19:34.127Z,48.4
2022-10-05T19:24:52.618Z,47.9
2022-10-05T19:30:10.804Z,48.5
2022-10-05T19:35:29.583Z,48.5
2022-10-05T19:40:48.118Z,48.5
2022-10-05T19:46:06.678Z,47.9
2022-10-05T19:51:25.494Z,47.8
2022-10-05T19:56:44.342Z,48.5
2022-10-05T20:02:02.509Z,49.1
2022-10-05T20:07:21.306Z,48.7
2022-10-05T20:12:39.859Z,49
2022-10-05T20:17:58.610Z,48
2022-10-05T20:23:16.833Z,48.5
2022-10-05T20:28:35.775Z,48.4
2022-10-05T20:33:54.690Z,47.9
2022-10-05T20:39:12.868Z,47.9
2022-10-05T20:44:31.111Z,48.5
2022-10-05T20:49:33.944Z,48.1
2022-10-05T20:54:52.442Z,48
2022-10-05T21:00:11.240Z,48.7
2022-10-05T21:05:29.711Z,48.7
2022-10-05T21:10:48.477Z,48.9
2022-10-05T21:16:06.927Z,48.9
2022-10-05T21:21:25.105Z,48.5
2022-10-05T21:26:43.852Z,48.3
2022-10-05T21:32:02.385Z,48.3
2022-10-05T21:37:20.590Z,48.2
2022-10-05T21:42:39.332Z,48.9
2022-10-05T21:47:57.831Z,48.9
2022-10-05T21:53:16.323Z,48.1
2022-10-05T21:58:35.096Z,48.4
2022-10-05T22:03:54.072Z,49.1
2022-10-05T22:09:12.535Z,48.6
2022-10-05T22:14:31.035Z,49.1
2022-10-05T22:19:49.372Z,48.6
2022-10-05T22:25:07.534Z,49.2
2022-10-05T22:30:25.735Z,49
2022-10-05T22:35:43.957Z,48.8
2022-10-05T22:41:02.151Z,49
2022-10-05T22:46:21.170Z,48.5
2022-10-05T22:51:39.666Z,48.9
2022-10-05T22:56:58.130Z,48.8
2022-10-05T23:02:16.377Z,48.3
2022-10-05T23:07:34.862Z,49
2022-10-05T23:13:01.292Z,48.3
2022-10-05T23:18:19.861Z,48.5
2022-10-05T23:23:38.088Z,49.1
2022-10-05T23:28:56.565Z,48.4
2022-10-05T23:34:15.046Z,48.4
2022-10-05T23:39:33.286Z,48.4
2022-10-05T23:44:51.756Z,48.3
2022-10-05T23:50:10.233Z,49.5
2022-10-05T23:55:28.869Z,48.9
